sensor_id;sensor_type;location;lat;lon;timestamp;P1;durP1;ratioP1;P2;durP2;ratioP2
63050;SDS011;49136;47.416;19.402;2023-03-26T00:01:17;0.30;;;0.30;;
63050;SDS011;49136;47.416;19.402;2023-03-26T00:03:45;0.45;;;0.28;;
63050;SDS011;49136;47.416;19.402;2023-03-26T00:06:17;0.30;;;0.30;;
63050;SDS011;49136;47.416;19.402;2023-03-26T00:08:44;0.30;;;0.30;;
63050;SDS011;49136;47.416;19.402;2023-03-26T00:11:11;0.68;;;0.30;;
63050;SDS011;49136;47.416;19.402;2023-03-26T00:13:38;0.65;;;0.38;;
63050;SDS011;49136;47.416;19.402;2023-03-26T00:16:05;0.55;;;0.32;;
63050;SDS011;49136;47.416;19.402;2023-03-26T00:18:31;1.17;;;0.68;;
63050;SDS011;49136;47.416;19.402;2023-03-26T00:21:00;0.20;;;0.20;;
63050;SDS011;49136;47.416;19.402;2023-03-26T00:23:27;0.60;;;0.32;;
63050;SDS011;49136;47.416;19.402;2023-03-26T00:25:53;0.15;;;0.15;;
63050;SDS011;49136;47.416;19.402;2023-03-26T00:28:20;0.65;;;0.38;;
63050;SDS011;49136;47.416;19.402;2023-03-26T00:30:47;0.35;;;0.30;;
63050;SDS011;49136;47.416;19.402;2023-03-26T00:33:14;0.68;;;0.30;;
63050;SDS011;49136;47.416;19.402;2023-03-26T00:35:43;0.68;;;0.52;;
63050;SDS011;49136;47.416;19.402;2023-03-26T00:38:14;0.32;;;0.32;;
63050;SDS011;49136;47.416;19.402;2023-03-26T00:40:40;0.35;;;0.35;;
63050;SDS011;49136;47.416;19.402;2023-03-26T00:43:12;0.30;;;0.30;;
63050;SDS011;49136;47.416;19.402;2023-03-26T00:45:53;0.75;;;0.40;;
63050;SDS011;49136;47.416;19.402;2023-03-26T00:48:20;2.65;;;0.60;;
63050;SDS011;49136;47.416;19.402;2023-03-26T00:50:46;1.00;;;0.55;;
63050;SDS011;49136;47.416;19.402;2023-03-26T00:53:13;0.40;;;0.40;;
63050;SDS011;49136;47.416;19.402;2023-03-26T00:55:43;1.02;;;0.45;;
63050;SDS011;49136;47.416;19.402;2023-03-26T00:58:10;1.60;;;0.70;;
63050;SDS011;49136;47.416;19.402;2023-03-26T01:00:45;0.30;;;0.30;;
63050;SDS011;49136;47.416;19.402;2023-03-26T01:03:17;4.22;;;0.73;;
63050;SDS011;49136;47.416;19.402;2023-03-26T01:05:45;1.35;;;0.30;;
63050;SDS011;49136;47.416;19.402;2023-03-26T01:11:04;1.40;;;0.50;;
63050;SDS011;49136;47.416;19.402;2023-03-26T01:13:37;1.45;;;0.90;;
63050;SDS011;49136;47.416;19.402;2023-03-26T01:19:01;1.48;;;0.30;;
63050;SDS011;49136;47.416;19.402;2023-03-26T01:21:28;0.38;;;0.32;;
63050;SDS011;49136;47.416;19.402;2023-03-26T01:24:06;3.05;;;0.50;;
63050;SDS011;49136;47.416;19.402;2023-03-26T01:29:30;0.38;;;0.25;;
63050;SDS011;49136;47.416;19.402;2023-03-26T01:43:16;1.33;;;0.40;;
63050;SDS011;49136;47.416;19.402;2023-03-26T01:45:50;1.15;;;0.52;;
63050;SDS011;49136;47.416;19.402;2023-03-26T01:48:17;0.40;;;0.40;;
63050;SDS011;49136;47.416;19.402;2023-03-26T01:50:42;0.20;;;0.20;;
63050;SDS011;49136;47.416;19.402;2023-03-26T01:53:08;2.38;;;0.82;;
63050;SDS011;49136;47.416;19.402;2023-03-26T01:55:53;1.88;;;0.65;;
63050;SDS011;49136;47.416;19.402;2023-03-26T01:58:28;0.77;;;0.65;;
63050;SDS011;49136;47.416;19.402;2023-03-26T02:04:08;0.20;;;0.20;;
63050;SDS011;49136;47.416;19.402;2023-03-26T02:06:53;0.90;;;0.57;;
63050;SDS011;49136;47.416;19.402;2023-03-26T02:09:32;0.20;;;0.20;;
63050;SDS011;49136;47.416;19.402;2023-03-26T02:12:02;0.40;;;0.40;;
63050;SDS011;49136;47.416;19.402;2023-03-26T02:14:29;0.30;;;0.30;;
63050;SDS011;49136;47.416;19.402;2023-03-26T02:16:55;1.30;;;0.35;;
63050;SDS011;49136;47.416;19.402;2023-03-26T02:19:21;0.60;;;0.38;;
63050;SDS011;49136;47.416;19.402;2023-03-26T02:21:48;0.50;;;0.50;;
63050;SDS011;49136;47.416;19.402;2023-03-26T02:24:16;1.02;;;0.73;;
63050;SDS011;49136;47.416;19.402;2023-03-26T02:26:42;3.20;;;0.55;;
63050;SDS011;49136;47.416;19.402;2023-03-26T02:29:08;0.57;;;0.40;;
63050;SDS011;49136;47.416;19.402;2023-03-26T02:31:34;0.25;;;0.25;;
63050;SDS011;49136;47.416;19.402;2023-03-26T02:34:00;0.88;;;0.68;;
63050;SDS011;49136;47.416;19.402;2023-03-26T02:36:26;0.68;;;0.57;;
63050;SDS011;49136;47.416;19.402;2023-03-26T02:38:52;1.88;;;0.40;;
63050;SDS011;49136;47.416;19.402;2023-03-26T02:41:18;0.22;;;0.22;;
63050;SDS011;49136;47.416;19.402;2023-03-26T02:43:44;1.35;;;0.47;;
63050;SDS011;49136;47.416;19.402;2023-03-26T02:46:10;0.60;;;0.50;;
63050;SDS011;49136;47.416;19.402;2023-03-26T02:48:35;0.47;;;0.47;;
63050;SDS011;49136;47.416;19.402;2023-03-26T02:51:01;0.38;;;0.38;;
63050;SDS011;49136;47.416;19.402;2023-03-26T02:53:28;0.32;;;0.32;;
63050;SDS011;49136;47.416;19.402;2023-03-26T02:55:57;0.43;;;0.40;;
63050;SDS011;49136;47.416;19.402;2023-03-26T02:58:24;0.35;;;0.35;;
63050;SDS011;49136;47.416;19.402;2023-03-26T03:00:51;0.30;;;0.30;;
63050;SDS011;49136;47.416;19.402;2023-03-26T03:03:22;0.65;;;0.43;;
63050;SDS011;49136;47.416;19.402;2023-03-26T03:05:49;0.65;;;0.40;;
63050;SDS011;49136;47.416;19.402;2023-03-26T03:08:16;0.63;;;0.50;;
63050;SDS011;49136;47.416;19.402;2023-03-26T03:11:02;1.05;;;0.68;;
63050;SDS011;49136;47.416;19.402;2023-03-26T03:13:39;0.63;;;0.63;;
63050;SDS011;49136;47.416;19.402;2023-03-26T03:16:05;0.73;;;0.70;;
63050;SDS011;49136;47.416;19.402;2023-03-26T03:18:30;1.85;;;0.95;;
63050;SDS011;49136;47.416;19.402;2023-03-26T03:20:56;0.40;;;0.40;;
63050;SDS011;49136;47.416;19.402;2023-03-26T03:23:21;0.90;;;0.68;;
63050;SDS011;49136;47.416;19.402;2023-03-26T03:25:47;0.98;;;0.50;;
63050;SDS011;49136;47.416;19.402;2023-03-26T03:28:14;2.90;;;0.88;;
63050;SDS011;49136;47.416;19.402;2023-03-26T03:30:42;1.10;;;0.55;;
63050;SDS011;49136;47.416;19.402;2023-03-26T03:33:08;0.63;;;0.50;;
63050;SDS011;49136;47.416;19.402;2023-03-26T03:35:33;0.88;;;0.60;;
63050;SDS011;49136;47.416;19.402;2023-03-26T03:37:59;1.25;;;0.55;;
63050;SDS011;49136;47.416;19.402;2023-03-26T03:40:25;2.58;;;1.23;;
63050;SDS011;49136;47.416;19.402;2023-03-26T03:42:51;0.38;;;0.35;;
63050;SDS011;49136;47.416;19.402;2023-03-26T03:45:17;0.25;;;0.25;;
63050;SDS011;49136;47.416;19.402;2023-03-26T03:47:43;1.30;;;0.52;;
63050;SDS011;49136;47.416;19.402;2023-03-26T03:50:09;2.45;;;0.70;;
63050;SDS011;49136;47.416;19.402;2023-03-26T03:52:34;1.80;;;0.95;;
63050;SDS011;49136;47.416;19.402;2023-03-26T03:55:00;1.73;;;0.93;;
63050;SDS011;49136;47.416;19.402;2023-03-26T03:57:26;5.45;;;1.85;;
63050;SDS011;49136;47.416;19.402;2023-03-26T03:59:52;1.65;;;1.05;;
63050;SDS011;49136;47.416;19.402;2023-03-26T04:02:18;0.40;;;0.30;;
63050;SDS011;49136;47.416;19.402;2023-03-26T04:04:58;0.45;;;0.45;;
63050;SDS011;49136;47.416;19.402;2023-03-26T04:07:25;3.00;;;0.65;;
63050;SDS011;49136;47.416;19.402;2023-03-26T04:09:52;1.15;;;0.68;;
63050;SDS011;49136;47.416;19.402;2023-03-26T04:12:17;0.80;;;0.50;;
63050;SDS011;49136;47.416;19.402;2023-03-26T04:14:43;1.05;;;0.93;;
63050;SDS011;49136;47.416;19.402;2023-03-26T04:17:08;2.60;;;1.10;;
63050;SDS011;49136;47.416;19.402;2023-03-26T04:19:34;1.13;;;0.73;;
63050;SDS011;49136;47.416;19.402;2023-03-26T04:21:59;1.20;;;0.80;;
63050;SDS011;49136;47.416;19.402;2023-03-26T04:24:29;0.52;;;0.52;;
63050;SDS011;49136;47.416;19.402;2023-03-26T04:27:02;2.17;;;1.23;;
63050;SDS011;49136;47.416;19.402;2023-03-26T04:29:30;2.70;;;1.30;;
63050;SDS011;49136;47.416;19.402;2023-03-26T04:32:02;0.57;;;0.57;;
63050;SDS011;49136;47.416;19.402;2023-03-26T04:34:31;3.20;;;1.38;;
63050;SDS011;49136;47.416;19.402;2023-03-26T04:36:58;0.93;;;0.70;;
63050;SDS011;49136;47.416;19.402;2023-03-26T04:39:26;1.73;;;0.93;;
63050;SDS011;49136;47.416;19.402;2023-03-26T04:41:56;1.25;;;1.08;;
63050;SDS011;49136;47.416;19.402;2023-03-26T04:44:24;1.17;;;1.08;;
63050;SDS011;49136;47.416;19.402;2023-03-26T04:46:50;2.85;;;1.23;;
63050;SDS011;49136;47.416;19.402;2023-03-26T04:49:19;4.90;;;1.00;;
63050;SDS011;49136;47.416;19.402;2023-03-26T04:51:44;1.10;;;0.70;;
63050;SDS011;49136;47.416;19.402;2023-03-26T04:54:11;2.22;;;1.05;;
63050;SDS011;49136;47.416;19.402;2023-03-26T04:56:39;0.93;;;0.75;;
63050;SDS011;49136;47.416;19.402;2023-03-26T04:59:08;0.60;;;0.60;;
63050;SDS011;49136;47.416;19.402;2023-03-26T05:01:38;1.65;;;0.65;;
63050;SDS011;49136;47.416;19.402;2023-03-26T05:04:03;1.55;;;0.45;;
63050;SDS011;49136;47.416;19.402;2023-03-26T05:06:29;0.65;;;0.65;;
63050;SDS011;49136;47.416;19.402;2023-03-26T05:08:58;1.27;;;0.88;;
63050;SDS011;49136;47.416;19.402;2023-03-26T05:11:24;2.65;;;1.02;;
63050;SDS011;49136;47.416;19.402;2023-03-26T05:13:49;1.42;;;0.93;;
63050;SDS011;49136;47.416;19.402;2023-03-26T05:16:15;0.82;;;0.73;;
63050;SDS011;49136;47.416;19.402;2023-03-26T05:18:40;5.28;;;1.80;;
63050;SDS011;49136;47.416;19.402;2023-03-26T05:21:06;4.53;;;1.33;;
63050;SDS011;49136;47.416;19.402;2023-03-26T05:23:31;1.63;;;1.20;;
63050;SDS011;49136;47.416;19.402;2023-03-26T05:25:57;10.20;;;1.98;;
63050;SDS011;49136;47.416;19.402;2023-03-26T05:28:22;0.60;;;0.60;;
63050;SDS011;49136;47.416;19.402;2023-03-26T05:30:52;1.67;;;0.90;;
63050;SDS011;49136;47.416;19.402;2023-03-26T05:33:19;2.35;;;1.50;;
63050;SDS011;49136;47.416;19.402;2023-03-26T05:35:45;4.97;;;1.15;;
63050;SDS011;49136;47.416;19.402;2023-03-26T05:38:10;1.30;;;1.20;;
63050;SDS011;49136;47.416;19.402;2023-03-26T05:40:36;2.17;;;1.42;;
63050;SDS011;49136;47.416;19.402;2023-03-26T05:43:02;1.38;;;1.00;;
63050;SDS011;49136;47.416;19.402;2023-03-26T05:45:28;1.25;;;0.73;;
63050;SDS011;49136;47.416;19.402;2023-03-26T05:47:53;3.67;;;0.88;;
63050;SDS011;49136;47.416;19.402;2023-03-26T05:50:20;2.05;;;1.15;;
63050;SDS011;49136;47.416;19.402;2023-03-26T05:52:46;2.67;;;1.10;;
63050;SDS011;49136;47.416;19.402;2023-03-26T05:55:11;1.98;;;1.35;;
63050;SDS011;49136;47.416;19.402;2023-03-26T05:57:37;3.25;;;1.58;;
63050;SDS011;49136;47.416;19.402;2023-03-26T06:00:03;1.77;;;1.67;;
63050;SDS011;49136;47.416;19.402;2023-03-26T06:02:32;1.48;;;0.98;;
63050;SDS011;49136;47.416;19.402;2023-03-26T06:04:58;3.63;;;1.15;;
63050;SDS011;49136;47.416;19.402;2023-03-26T06:07:25;3.83;;;2.20;;
63050;SDS011;49136;47.416;19.402;2023-03-26T06:09:51;3.58;;;1.80;;
63050;SDS011;49136;47.416;19.402;2023-03-26T06:12:17;2.97;;;1.17;;
63050;SDS011;49136;47.416;19.402;2023-03-26T06:14:45;3.58;;;1.73;;
63050;SDS011;49136;47.416;19.402;2023-03-26T06:17:11;4.45;;;1.75;;
63050;SDS011;49136;47.416;19.402;2023-03-26T06:19:37;3.17;;;1.55;;
63050;SDS011;49136;47.416;19.402;2023-03-26T06:22:02;3.92;;;1.52;;
63050;SDS011;49136;47.416;19.402;2023-03-26T06:24:28;10.38;;;1.98;;
63050;SDS011;49136;47.416;19.402;2023-03-26T06:26:54;3.42;;;1.48;;
63050;SDS011;49136;47.416;19.402;2023-03-26T06:29:19;1.45;;;0.90;;
63050;SDS011;49136;47.416;19.402;2023-03-26T06:31:45;0.95;;;0.77;;
63050;SDS011;49136;47.416;19.402;2023-03-26T06:34:10;1.42;;;0.95;;
63050;SDS011;49136;47.416;19.402;2023-03-26T06:36:36;3.92;;;1.23;;
63050;SDS011;49136;47.416;19.402;2023-03-26T06:39:01;2.90;;;1.40;;
63050;SDS011;49136;47.416;19.402;2023-03-26T06:41:27;1.20;;;1.10;;
63050;SDS011;49136;47.416;19.402;2023-03-26T06:43:53;8.85;;;1.35;;
63050;SDS011;49136;47.416;19.402;2023-03-26T06:46:19;2.20;;;1.15;;
63050;SDS011;49136;47.416;19.402;2023-03-26T06:48:45;0.90;;;0.75;;
63050;SDS011;49136;47.416;19.402;2023-03-26T06:51:10;2.35;;;1.02;;
63050;SDS011;49136;47.416;19.402;2023-03-26T06:53:36;2.97;;;1.10;;
63050;SDS011;49136;47.416;19.402;2023-03-26T06:56:01;1.08;;;0.75;;
63050;SDS011;49136;47.416;19.402;2023-03-26T06:58:28;1.05;;;0.70;;
63050;SDS011;49136;47.416;19.402;2023-03-26T07:00:54;2.67;;;1.15;;
63050;SDS011;49136;47.416;19.402;2023-03-26T07:03:20;1.77;;;0.80;;
63050;SDS011;49136;47.416;19.402;2023-03-26T07:05:46;3.72;;;1.38;;
63050;SDS011;49136;47.416;19.402;2023-03-26T07:08:12;7.00;;;1.50;;
63050;SDS011;49136;47.416;19.402;2023-03-26T07:10:38;1.35;;;0.90;;
63050;SDS011;49136;47.416;19.402;2023-03-26T07:13:03;4.50;;;1.75;;
63050;SDS011;49136;47.416;19.402;2023-03-26T07:15:28;7.38;;;1.65;;
63050;SDS011;49136;47.416;19.402;2023-03-26T07:17:54;2.30;;;1.30;;
63050;SDS011;49136;47.416;19.402;2023-03-26T07:20:20;8.52;;;1.45;;
63050;SDS011;49136;47.416;19.402;2023-03-26T07:22:46;1.90;;;1.05;;
63050;SDS011;49136;47.416;19.402;2023-03-26T07:25:11;2.83;;;1.10;;
63050;SDS011;49136;47.416;19.402;2023-03-26T07:30:14;2.67;;;1.00;;
63050;SDS011;49136;47.416;19.402;2023-03-26T07:40:56;2.00;;;1.15;;
63050;SDS011;49136;47.416;19.402;2023-03-26T07:46:29;3.20;;;1.73;;
63050;SDS011;49136;47.416;19.402;2023-03-26T07:48:58;7.88;;;2.10;;
63050;SDS011;49136;47.416;19.402;2023-03-26T07:51:25;3.90;;;0.88;;
63050;SDS011;49136;47.416;19.402;2023-03-26T07:53:51;4.43;;;1.58;;
63050;SDS011;49136;47.416;19.402;2023-03-26T07:56:25;1.35;;;1.25;;
63050;SDS011;49136;47.416;19.402;2023-03-26T08:10:42;2.58;;;1.40;;
63050;SDS011;49136;47.416;19.402;2023-03-26T08:21:52;2.25;;;1.52;;
63050;SDS011;49136;47.416;19.402;2023-03-26T08:24:36;13.90;;;2.75;;
63050;SDS011;49136;47.416;19.402;2023-03-26T08:32:21;4.40;;;2.40;;
63050;SDS011;49136;47.416;19.402;2023-03-26T08:34:47;4.85;;;1.73;;
63050;SDS011;49136;47.416;19.402;2023-03-26T08:37:13;3.88;;;1.83;;
63050;SDS011;49136;47.416;19.402;2023-03-26T08:39:39;5.35;;;1.77;;
63050;SDS011;49136;47.416;19.402;2023-03-26T08:58:58;2.22;;;1.02;;
63050;SDS011;49136;47.416;19.402;2023-03-26T09:09:25;1.77;;;0.80;;
63050;SDS011;49136;47.416;19.402;2023-03-26T09:12:27;1.70;;;0.95;;
63050;SDS011;49136;47.416;19.402;2023-03-26T09:20:55;3.55;;;1.60;;
63050;SDS011;49136;47.416;19.402;2023-03-26T09:34:31;3.75;;;1.08;;
63050;SDS011;49136;47.416;19.402;2023-03-26T09:42:45;1.83;;;0.82;;
63050;SDS011;49136;47.416;19.402;2023-03-26T09:59:07;2.78;;;0.93;;
63050;SDS011;49136;47.416;19.402;2023-03-26T10:02:01;6.07;;;3.38;;
63050;SDS011;49136;47.416;19.402;2023-03-26T10:18:36;3.65;;;1.40;;
63050;SDS011;49136;47.416;19.402;2023-03-26T10:24:00;4.13;;;0.82;;
63050;SDS011;49136;47.416;19.402;2023-03-26T10:35:19;1.48;;;0.90;;
63050;SDS011;49136;47.416;19.402;2023-03-26T10:52:35;11.32;;;3.40;;
63050;SDS011;49136;47.416;19.402;2023-03-26T10:55:15;29.70;;;8.97;;
63050;SDS011;49136;47.416;19.402;2023-03-26T10:58:17;13.27;;;4.80;;
63050;SDS011;49136;47.416;19.402;2023-03-26T11:00:59;64.07;;;21.30;;
63050;SDS011;49136;47.416;19.402;2023-03-26T11:14:15;11.05;;;5.78;;
63050;SDS011;49136;47.416;19.402;2023-03-26T11:17:12;49.67;;;21.40;;
63050;SDS011;49136;47.416;19.402;2023-03-26T11:31:46;3.70;;;1.98;;
63050;SDS011;49136;47.416;19.402;2023-03-26T11:34:24;3.20;;;1.35;;
63050;SDS011;49136;47.416;19.402;2023-03-26T11:36:57;2.08;;;0.98;;
63050;SDS011;49136;47.416;19.402;2023-03-26T11:39:28;3.63;;;1.15;;
63050;SDS011;49136;47.416;19.402;2023-03-26T11:42:05;2.58;;;0.82;;
63050;SDS011;49136;47.416;19.402;2023-03-26T11:44:37;2.83;;;1.17;;
63050;SDS011;49136;47.416;19.402;2023-03-26T11:47:07;2.88;;;1.30;;
63050;SDS011;49136;47.416;19.402;2023-03-26T11:49:36;2.42;;;1.35;;
63050;SDS011;49136;47.416;19.402;2023-03-26T11:52:03;2.58;;;1.08;;
63050;SDS011;49136;47.416;19.402;2023-03-26T11:54:29;2.10;;;0.93;;
63050;SDS011;49136;47.416;19.402;2023-03-26T11:57:00;2.45;;;0.98;;
63050;SDS011;49136;47.416;19.402;2023-03-26T11:59:43;7.18;;;1.02;;
63050;SDS011;49136;47.416;19.402;2023-03-26T12:02:15;1.40;;;0.80;;
63050;SDS011;49136;47.416;19.402;2023-03-26T12:04:50;2.58;;;1.02;;
63050;SDS011;49136;47.416;19.402;2023-03-26T12:07:41;2.08;;;0.90;;
63050;SDS011;49136;47.416;19.402;2023-03-26T12:10:48;1.42;;;0.75;;
63050;SDS011;49136;47.416;19.402;2023-03-26T12:15:55;2.50;;;0.95;;
63050;SDS011;49136;47.416;19.402;2023-03-26T12:18:24;1.48;;;1.15;;
63050;SDS011;49136;47.416;19.402;2023-03-26T12:21:04;3.58;;;0.70;;
63050;SDS011;49136;47.416;19.402;2023-03-26T12:23:43;6.05;;;1.10;;
63050;SDS011;49136;47.416;19.402;2023-03-26T12:26:17;1.33;;;0.95;;
63050;SDS011;49136;47.416;19.402;2023-03-26T12:28:46;2.70;;;1.00;;
63050;SDS011;49136;47.416;19.402;2023-03-26T12:31:16;1.88;;;1.00;;
63050;SDS011;49136;47.416;19.402;2023-03-26T12:33:43;2.75;;;1.42;;
63050;SDS011;49136;47.416;19.402;2023-03-26T12:36:15;2.05;;;1.00;;
63050;SDS011;49136;47.416;19.402;2023-03-26T12:38:42;2.33;;;0.80;;
63050;SDS011;49136;47.416;19.402;2023-03-26T12:43:39;2.65;;;0.98;;
63050;SDS011;49136;47.416;19.402;2023-03-26T12:49:02;1.08;;;0.60;;
63050;SDS011;49136;47.416;19.402;2023-03-26T12:54:09;1.80;;;0.95;;
63050;SDS011;49136;47.416;19.402;2023-03-26T12:57:04;0.88;;;0.82;;
63050;SDS011;49136;47.416;19.402;2023-03-26T13:02:17;1.50;;;0.85;;
63050;SDS011;49136;47.416;19.402;2023-03-26T13:07:49;1.85;;;1.00;;
63050;SDS011;49136;47.416;19.402;2023-03-26T13:19:00;2.30;;;0.52;;
63050;SDS011;49136;47.416;19.402;2023-03-26T13:27:09;3.05;;;0.82;;
63050;SDS011;49136;47.416;19.402;2023-03-26T13:29:58;0.40;;;0.40;;
63050;SDS011;49136;47.416;19.402;2023-03-26T13:32:56;1.92;;;0.70;;
63050;SDS011;49136;47.416;19.402;2023-03-26T13:38:35;1.45;;;0.88;;
63050;SDS011;49136;47.416;19.402;2023-03-26T13:41:23;0.40;;;0.40;;
63050;SDS011;49136;47.416;19.402;2023-03-26T13:46:57;0.40;;;0.40;;
63050;SDS011;49136;47.416;19.402;2023-03-26T13:49:32;0.40;;;0.40;;
63050;SDS011;49136;47.416;19.402;2023-03-26T13:54:37;1.13;;;0.65;;
63050;SDS011;49136;47.416;19.402;2023-03-26T13:57:28;2.35;;;0.52;;
63050;SDS011;49136;47.416;19.402;2023-03-26T14:00:03;1.52;;;0.65;;
63050;SDS011;49136;47.416;19.402;2023-03-26T14:10:18;1.25;;;0.60;;
63050;SDS011;49136;47.416;19.402;2023-03-26T14:15:50;3.05;;;0.90;;
63050;SDS011;49136;47.416;19.402;2023-03-26T14:21:08;3.17;;;1.35;;
63050;SDS011;49136;47.416;19.402;2023-03-26T14:26:56;1.38;;;0.55;;
63050;SDS011;49136;47.416;19.402;2023-03-26T14:29:28;5.68;;;0.80;;
63050;SDS011;49136;47.416;19.402;2023-03-26T14:32:41;1.70;;;0.90;;
63050;SDS011;49136;47.416;19.402;2023-03-26T14:35:50;2.60;;;1.40;;
63050;SDS011;49136;47.416;19.402;2023-03-26T14:41:24;7.07;;;1.85;;
63050;SDS011;49136;47.416;19.402;2023-03-26T14:44:04;3.30;;;0.80;;
63050;SDS011;49136;47.416;19.402;2023-03-26T14:55:04;1.40;;;0.93;;
63050;SDS011;49136;47.416;19.402;2023-03-26T15:18:36;1.13;;;0.70;;
63050;SDS011;49136;47.416;19.402;2023-03-26T15:24:22;0.70;;;0.47;;
63050;SDS011;49136;47.416;19.402;2023-03-26T15:29:57;0.70;;;0.50;;
63050;SDS011;49136;47.416;19.402;2023-03-26T15:32:54;1.00;;;0.50;;
63050;SDS011;49136;47.416;19.402;2023-03-26T15:41:26;2.58;;;0.75;;
63050;SDS011;49136;47.416;19.402;2023-03-26T15:49:40;1.30;;;0.60;;
63050;SDS011;49136;47.416;19.402;2023-03-26T15:54:49;1.30;;;0.55;;
63050;SDS011;49136;47.416;19.402;2023-03-26T16:00:11;2.08;;;0.68;;
63050;SDS011;49136;47.416;19.402;2023-03-26T16:05:55;1.33;;;0.75;;
63050;SDS011;49136;47.416;19.402;2023-03-26T16:08:38;2.08;;;0.73;;
63050;SDS011;49136;47.416;19.402;2023-03-26T16:12:26;3.38;;;1.08;;
63050;SDS011;49136;47.416;19.402;2023-03-26T16:17:01;2.70;;;1.10;;
63050;SDS011;49136;47.416;19.402;2023-03-26T16:19:45;4.65;;;0.50;;
63050;SDS011;49136;47.416;19.402;2023-03-26T16:30:31;3.10;;;1.58;;
63050;SDS011;49136;47.416;19.402;2023-03-26T16:33:08;2.33;;;0.90;;
63050;SDS011;49136;47.416;19.402;2023-03-26T16:41:18;9.32;;;2.92;;
63050;SDS011;49136;47.416;19.402;2023-03-26T16:43:57;17.10;;;4.90;;
63050;SDS011;49136;47.416;19.402;2023-03-26T16:49:41;6.60;;;2.70;;
63050;SDS011;49136;47.416;19.402;2023-03-26T17:06:05;5.55;;;1.33;;
63050;SDS011;49136;47.416;19.402;2023-03-26T17:11:08;10.93;;;2.90;;
63050;SDS011;49136;47.416;19.402;2023-03-26T17:16:31;9.13;;;2.75;;
63050;SDS011;49136;47.416;19.402;2023-03-26T17:21:40;9.73;;;2.85;;
63050;SDS011;49136;47.416;19.402;2023-03-26T17:35:36;4.50;;;1.90;;
63050;SDS011;49136;47.416;19.402;2023-03-26T17:40:44;4.93;;;1.13;;
63050;SDS011;49136;47.416;19.402;2023-03-26T17:43:31;3.45;;;1.65;;
63050;SDS011;49136;47.416;19.402;2023-03-26T17:54:39;13.90;;;6.53;;
63050;SDS011;49136;47.416;19.402;2023-03-26T18:00:04;14.45;;;5.97;;
63050;SDS011;49136;47.416;19.402;2023-03-26T18:02:35;18.48;;;6.00;;
63050;SDS011;49136;47.416;19.402;2023-03-26T18:05:13;22.70;;;7.30;;
63050;SDS011;49136;47.416;19.402;2023-03-26T18:10:59;20.70;;;7.28;;
63050;SDS011;49136;47.416;19.402;2023-03-26T18:16:19;16.27;;;5.10;;
63050;SDS011;49136;47.416;19.402;2023-03-26T18:18:50;9.40;;;5.18;;
63050;SDS011;49136;47.416;19.402;2023-03-26T18:21:20;11.07;;;5.00;;
63050;SDS011;49136;47.416;19.402;2023-03-26T18:23:47;14.73;;;5.57;;
63050;SDS011;49136;47.416;19.402;2023-03-26T18:26:21;24.45;;;6.88;;
63050;SDS011;49136;47.416;19.402;2023-03-26T18:29:07;34.33;;;10.15;;
63050;SDS011;49136;47.416;19.402;2023-03-26T18:31:51;71.20;;;18.90;;
63050;SDS011;49136;47.416;19.402;2023-03-26T18:34:22;57.58;;;12.35;;
63050;SDS011;49136;47.416;19.402;2023-03-26T18:39:28;33.35;;;9.45;;
63050;SDS011;49136;47.416;19.402;2023-03-26T18:41:54;16.88;;;6.32;;
63050;SDS011;49136;47.416;19.402;2023-03-26T18:44:21;21.95;;;6.15;;
63050;SDS011;49136;47.416;19.402;2023-03-26T18:46:48;17.52;;;6.28;;
63050;SDS011;49136;47.416;19.402;2023-03-26T18:49:19;6.57;;;2.97;;
63050;SDS011;49136;47.416;19.402;2023-03-26T18:51:46;5.20;;;2.58;;
63050;SDS011;49136;47.416;19.402;2023-03-26T18:54:14;7.18;;;2.72;;
63050;SDS011;49136;47.416;19.402;2023-03-26T18:56:49;3.63;;;1.98;;
63050;SDS011;49136;47.416;19.402;2023-03-26T19:01:45;4.28;;;2.40;;
63050;SDS011;49136;47.416;19.402;2023-03-26T19:04:12;9.85;;;2.13;;
63050;SDS011;49136;47.416;19.402;2023-03-26T19:06:39;7.80;;;2.70;;
63050;SDS011;49136;47.416;19.402;2023-03-26T19:09:07;5.25;;;2.03;;
63050;SDS011;49136;47.416;19.402;2023-03-26T19:11:36;9.73;;;2.42;;
63050;SDS011;49136;47.416;19.402;2023-03-26T19:14:05;8.43;;;3.40;;
63050;SDS011;49136;47.416;19.402;2023-03-26T19:16:38;10.23;;;2.35;;
63050;SDS011;49136;47.416;19.402;2023-03-26T19:19:07;4.38;;;1.80;;
63050;SDS011;49136;47.416;19.402;2023-03-26T19:21:38;5.78;;;2.10;;
63050;SDS011;49136;47.416;19.402;2023-03-26T19:24:05;6.35;;;1.85;;
63050;SDS011;49136;47.416;19.402;2023-03-26T19:26:32;5.78;;;2.00;;
63050;SDS011;49136;47.416;19.402;2023-03-26T19:28:58;9.60;;;2.03;;
63050;SDS011;49136;47.416;19.402;2023-03-26T19:31:26;3.67;;;1.90;;
63050;SDS011;49136;47.416;19.402;2023-03-26T19:36:53;9.23;;;2.97;;
63050;SDS011;49136;47.416;19.402;2023-03-26T19:39:34;10.18;;;2.58;;
63050;SDS011;49136;47.416;19.402;2023-03-26T19:42:08;7.45;;;2.80;;
63050;SDS011;49136;47.416;19.402;2023-03-26T19:44:40;6.97;;;2.80;;
63050;SDS011;49136;47.416;19.402;2023-03-26T19:49:58;13.73;;;2.78;;
63050;SDS011;49136;47.416;19.402;2023-03-26T19:52:36;10.10;;;3.40;;
63050;SDS011;49136;47.416;19.402;2023-03-26T19:57:34;8.57;;;3.37;;
63050;SDS011;49136;47.416;19.402;2023-03-26T20:00:05;8.40;;;3.25;;
63050;SDS011;49136;47.416;19.402;2023-03-26T20:02:37;5.82;;;2.42;;
63050;SDS011;49136;47.416;19.402;2023-03-26T20:05:21;12.32;;;3.92;;
63050;SDS011;49136;47.416;19.402;2023-03-26T20:07:50;21.98;;;5.00;;
63050;SDS011;49136;47.416;19.402;2023-03-26T20:10:16;23.38;;;4.07;;
63050;SDS011;49136;47.416;19.402;2023-03-26T20:12:43;8.13;;;3.40;;
63050;SDS011;49136;47.416;19.402;2023-03-26T20:15:30;8.68;;;3.08;;
63050;SDS011;49136;47.416;19.402;2023-03-26T20:17:56;9.73;;;3.30;;
63050;SDS011;49136;47.416;19.402;2023-03-26T20:20:24;16.58;;;5.18;;
63050;SDS011;49136;47.416;19.402;2023-03-26T20:22:51;9.20;;;4.10;;
63050;SDS011;49136;47.416;19.402;2023-03-26T20:25:23;15.77;;;4.03;;
63050;SDS011;49136;47.416;19.402;2023-03-26T20:27:52;12.55;;;4.50;;
63050;SDS011;49136;47.416;19.402;2023-03-26T20:30:19;12.65;;;5.25;;
63050;SDS011;49136;47.416;19.402;2023-03-26T20:32:46;11.25;;;4.00;;
63050;SDS011;49136;47.416;19.402;2023-03-26T20:35:19;11.00;;;4.32;;
63050;SDS011;49136;47.416;19.402;2023-03-26T20:37:46;13.13;;;4.68;;
63050;SDS011;49136;47.416;19.402;2023-03-26T20:40:13;8.23;;;3.15;;
63050;SDS011;49136;47.416;19.402;2023-03-26T20:42:40;9.43;;;4.30;;
63050;SDS011;49136;47.416;19.402;2023-03-26T20:47:43;8.07;;;2.83;;
63050;SDS011;49136;47.416;19.402;2023-03-26T20:50:11;5.18;;;2.70;;
63050;SDS011;49136;47.416;19.402;2023-03-26T20:52:38;5.30;;;2.40;;
63050;SDS011;49136;47.416;19.402;2023-03-26T20:55:06;4.90;;;2.28;;
63050;SDS011;49136;47.416;19.402;2023-03-26T20:57:37;4.47;;;1.75;;
63050;SDS011;49136;47.416;19.402;2023-03-26T21:00:04;8.35;;;2.80;;
63050;SDS011;49136;47.416;19.402;2023-03-26T21:02:52;8.05;;;2.38;;
63050;SDS011;49136;47.416;19.402;2023-03-26T21:05:19;5.60;;;2.08;;
63050;SDS011;49136;47.416;19.402;2023-03-26T21:07:49;8.25;;;2.47;;
63050;SDS011;49136;47.416;19.402;2023-03-26T21:10:18;5.35;;;1.98;;
63050;SDS011;49136;47.416;19.402;2023-03-26T21:12:53;6.05;;;1.95;;
63050;SDS011;49136;47.416;19.402;2023-03-26T21:15:19;8.18;;;2.15;;
63050;SDS011;49136;47.416;19.402;2023-03-26T21:17:46;6.07;;;2.10;;
63050;SDS011;49136;47.416;19.402;2023-03-26T21:20:12;7.65;;;3.08;;
63050;SDS011;49136;47.416;19.402;2023-03-26T21:31:00;8.40;;;2.33;;
63050;SDS011;49136;47.416;19.402;2023-03-26T21:33:29;4.10;;;1.95;;